Terminal Aerodrome Forecast
Issued by NWS

Home | Current Version | Previous Version | Text Only | Print | Product List | Glossary On
Versions: 1 2 3 4 5 6 7 8 9 10 11 12 13 14 15 16 17 18 19 20 21 22 23 24 25 26 27 28 29 30 31 32 33 34 35 36 37 38 39 40 41 42 43 44 45 46 47
000
FTUS46 KEKA 262346
TAFACV
TAF
KACV 262346Z 2700/2724 33010KT P6SM BKN025 OVC050
     FM270300 35005KT 5SM BR OVC005
     FM270900 02003KT P6SM OVC020
     FM271600 35010G18KT P6SM SCT025 BKN050
     FM271900 33018G25KT P6SM BKN050=

USA.gov is the U.S. government's official web portal to all federal, state and local government web resources and services.